sensor_id;sensor_type;location;lat;lon;timestamp;temperature;humidity
20319;DHT22;10317;47.254;11.314;2023-09-19T00:01:42;16.00;99.90
20319;DHT22;10317;47.254;11.314;2023-09-19T00:04:14;16.00;99.90
20319;DHT22;10317;47.254;11.314;2023-09-19T00:06:40;16.00;99.90
20319;DHT22;10317;47.254;11.314;2023-09-19T00:09:06;16.00;99.90
20319;DHT22;10317;47.254;11.314;2023-09-19T00:11:36;16.00;99.90
20319;DHT22;10317;47.254;11.314;2023-09-19T00:14:02;16.00;99.90
20319;DHT22;10317;47.254;11.314;2023-09-19T00:16:28;16.00;99.90
20319;DHT22;10317;47.254;11.314;2023-09-19T00:18:54;16.00;99.90
20319;DHT22;10317;47.254;11.314;2023-09-19T00:21:20;16.00;99.90
20319;DHT22;10317;47.254;11.314;2023-09-19T00:23:46;16.00;99.90
20319;DHT22;10317;47.254;11.314;2023-09-19T00:26:12;16.00;99.90
20319;DHT22;10317;47.254;11.314;2023-09-19T00:28:38;16.00;99.90
20319;DHT22;10317;47.254;11.314;2023-09-19T00:31:07;16.00;99.90
20319;DHT22;10317;47.254;11.314;2023-09-19T00:33:34;15.90;99.90
20319;DHT22;10317;47.254;11.314;2023-09-19T00:35:59;15.90;99.90
20319;DHT22;10317;47.254;11.314;2023-09-19T00:38:27;15.90;99.90
20319;DHT22;10317;47.254;11.314;2023-09-19T00:40:54;15.90;99.90
20319;DHT22;10317;47.254;11.314;2023-09-19T00:43:23;15.90;99.90
20319;DHT22;10317;47.254;11.314;2023-09-19T00:45:52;15.90;99.90
20319;DHT22;10317;47.254;11.314;2023-09-19T00:48:20;15.90;99.90
20319;DHT22;10317;47.254;11.314;2023-09-19T00:50:47;15.90;99.90
20319;DHT22;10317;47.254;11.314;2023-09-19T00:53:18;15.90;99.90
20319;DHT22;10317;47.254;11.314;2023-09-19T00:55:46;15.90;99.90
20319;DHT22;10317;47.254;11.314;2023-09-19T00:58:12;15.90;99.90
20319;DHT22;10317;47.254;11.314;2023-09-19T01:00:38;15.90;99.90
20319;DHT22;10317;47.254;11.314;2023-09-19T01:03:05;15.90;99.90
20319;DHT22;10317;47.254;11.314;2023-09-19T01:05:33;15.90;99.90
20319;DHT22;10317;47.254;11.314;2023-09-19T01:07:59;15.90;99.90
20319;DHT22;10317;47.254;11.314;2023-09-19T01:10:25;15.90;99.90
20319;DHT22;10317;47.254;11.314;2023-09-19T01:13:31;15.90;99.90
20319;DHT22;10317;47.254;11.314;2023-09-19T01:29:49;15.90;99.90
20319;DHT22;10317;47.254;11.314;2023-09-19T01:32:19;15.90;99.90
20319;DHT22;10317;47.254;11.314;2023-09-19T01:34:53;15.80;99.90
20319;DHT22;10317;47.254;11.314;2023-09-19T01:37:20;15.90;99.90
20319;DHT22;10317;47.254;11.314;2023-09-19T01:40:06;15.80;99.90
20319;DHT22;10317;47.254;11.314;2023-09-19T01:42:54;15.90;99.90
20319;DHT22;10317;47.254;11.314;2023-09-19T01:51:07;15.90;99.90
20319;DHT22;10317;47.254;11.314;2023-09-19T01:56:08;15.90;99.90
20319;DHT22;10317;47.254;11.314;2023-09-19T01:58:41;15.90;99.90
20319;DHT22;10317;47.254;11.314;2023-09-19T02:01:10;15.80;99.90
20319;DHT22;10317;47.254;11.314;2023-09-19T02:03:38;15.80;99.90
20319;DHT22;10317;47.254;11.314;2023-09-19T02:06:05;15.80;99.90
20319;DHT22;10317;47.254;11.314;2023-09-19T02:08:31;15.80;99.90
20319;DHT22;10317;47.254;11.314;2023-09-19T02:10:59;15.80;99.90
20319;DHT22;10317;47.254;11.314;2023-09-19T02:13:25;15.80;99.90
20319;DHT22;10317;47.254;11.314;2023-09-19T02:15:53;15.80;99.90
20319;DHT22;10317;47.254;11.314;2023-09-19T02:18:19;15.90;99.90
20319;DHT22;10317;47.254;11.314;2023-09-19T02:20:45;15.90;99.90
20319;DHT22;10317;47.254;11.314;2023-09-19T02:23:12;15.90;99.90
20319;DHT22;10317;47.254;11.314;2023-09-19T02:25:38;15.90;99.90
20319;DHT22;10317;47.254;11.314;2023-09-19T02:28:05;15.90;99.90
20319;DHT22;10317;47.254;11.314;2023-09-19T02:30:32;15.90;99.90
20319;DHT22;10317;47.254;11.314;2023-09-19T02:32:58;15.80;99.90
20319;DHT22;10317;47.254;11.314;2023-09-19T02:35:27;15.80;99.90
20319;DHT22;10317;47.254;11.314;2023-09-19T02:37:53;15.90;99.90
20319;DHT22;10317;47.254;11.314;2023-09-19T02:40:19;15.80;99.90
20319;DHT22;10317;47.254;11.314;2023-09-19T02:42:46;15.90;99.90
20319;DHT22;10317;47.254;11.314;2023-09-19T02:45:18;15.90;99.90
20319;DHT22;10317;47.254;11.314;2023-09-19T02:47:45;15.90;99.90
20319;DHT22;10317;47.254;11.314;2023-09-19T02:50:11;15.90;99.90
20319;DHT22;10317;47.254;11.314;2023-09-19T02:52:38;15.90;99.90
20319;DHT22;10317;47.254;11.314;2023-09-19T02:55:04;15.80;99.90
20319;DHT22;10317;47.254;11.314;2023-09-19T02:57:31;15.80;99.90
20319;DHT22;10317;47.254;11.314;2023-09-19T02:59:58;15.80;99.90
20319;DHT22;10317;47.254;11.314;2023-09-19T03:02:26;15.80;99.90
20319;DHT22;10317;47.254;11.314;2023-09-19T03:04:53;15.80;99.90
20319;DHT22;10317;47.254;11.314;2023-09-19T03:07:19;15.80;99.90
20319;DHT22;10317;47.254;11.314;2023-09-19T03:09:45;15.80;99.90
20319;DHT22;10317;47.254;11.314;2023-09-19T03:12:11;15.80;99.90
20319;DHT22;10317;47.254;11.314;2023-09-19T03:14:36;15.80;99.90
20319;DHT22;10317;47.254;11.314;2023-09-19T03:17:02;15.80;99.90
20319;DHT22;10317;47.254;11.314;2023-09-19T03:19:31;15.80;99.90
20319;DHT22;10317;47.254;11.314;2023-09-19T03:21:59;15.70;99.90
20319;DHT22;10317;47.254;11.314;2023-09-19T03:24:25;15.80;99.90
20319;DHT22;10317;47.254;11.314;2023-09-19T03:26:51;15.80;99.90
20319;DHT22;10317;47.254;11.314;2023-09-19T03:29:17;15.80;99.90
20319;DHT22;10317;47.254;11.314;2023-09-19T03:31:43;15.80;99.90
20319;DHT22;10317;47.254;11.314;2023-09-19T03:34:09;15.80;99.90
20319;DHT22;10317;47.254;11.314;2023-09-19T03:36:35;15.80;99.90
20319;DHT22;10317;47.254;11.314;2023-09-19T03:39:02;15.80;99.90
20319;DHT22;10317;47.254;11.314;2023-09-19T03:41:31;15.80;99.90
20319;DHT22;10317;47.254;11.314;2023-09-19T03:43:56;15.80;99.90
20319;DHT22;10317;47.254;11.314;2023-09-19T03:46:22;15.80;99.90
20319;DHT22;10317;47.254;11.314;2023-09-19T03:48:48;15.80;99.90
20319;DHT22;10317;47.254;11.314;2023-09-19T03:51:13;15.80;99.90
20319;DHT22;10317;47.254;11.314;2023-09-19T03:53:39;15.80;99.90
20319;DHT22;10317;47.254;11.314;2023-09-19T03:56:04;15.80;99.90
20319;DHT22;10317;47.254;11.314;2023-09-19T03:58:30;15.80;99.90
20319;DHT22;10317;47.254;11.314;2023-09-19T04:00:56;15.80;99.90
20319;DHT22;10317;47.254;11.314;2023-09-19T04:03:24;15.80;99.90
20319;DHT22;10317;47.254;11.314;2023-09-19T04:05:54;15.80;99.90
20319;DHT22;10317;47.254;11.314;2023-09-19T04:08:19;15.80;99.90
20319;DHT22;10317;47.254;11.314;2023-09-19T04:10:45;15.80;99.90
20319;DHT22;10317;47.254;11.314;2023-09-19T04:13:11;15.80;99.90
20319;DHT22;10317;47.254;11.314;2023-09-19T04:15:36;15.80;99.90
20319;DHT22;10317;47.254;11.314;2023-09-19T04:18:03;15.70;99.90
20319;DHT22;10317;47.254;11.314;2023-09-19T04:20:29;15.70;99.90
20319;DHT22;10317;47.254;11.314;2023-09-19T04:22:54;15.70;99.90
20319;DHT22;10317;47.254;11.314;2023-09-19T04:25:21;15.70;99.90
20319;DHT22;10317;47.254;11.314;2023-09-19T04:27:46;15.60;99.90
20319;DHT22;10317;47.254;11.314;2023-09-19T04:30:13;15.60;99.90
20319;DHT22;10317;47.254;11.314;2023-09-19T04:32:40;15.60;99.90
20319;DHT22;10317;47.254;11.314;2023-09-19T04:35:10;15.60;99.90
20319;DHT22;10317;47.254;11.314;2023-09-19T04:37:40;15.60;99.90
20319;DHT22;10317;47.254;11.314;2023-09-19T04:40:10;15.60;99.90
20319;DHT22;10317;47.254;11.314;2023-09-19T04:42:43;15.60;99.90
20319;DHT22;10317;47.254;11.314;2023-09-19T04:45:09;15.60;99.90
20319;DHT22;10317;47.254;11.314;2023-09-19T04:47:36;15.50;99.90
20319;DHT22;10317;47.254;11.314;2023-09-19T04:50:08;15.60;99.90
20319;DHT22;10317;47.254;11.314;2023-09-19T04:52:41;15.60;99.90
20319;DHT22;10317;47.254;11.314;2023-09-19T04:55:12;15.60;99.90
20319;DHT22;10317;47.254;11.314;2023-09-19T04:57:43;15.60;99.90
20319;DHT22;10317;47.254;11.314;2023-09-19T05:00:14;15.60;99.90
20319;DHT22;10317;47.254;11.314;2023-09-19T05:02:41;15.60;99.90
20319;DHT22;10317;47.254;11.314;2023-09-19T05:05:08;15.50;99.90
20319;DHT22;10317;47.254;11.314;2023-09-19T05:07:35;15.60;99.90
20319;DHT22;10317;47.254;11.314;2023-09-19T05:10:01;15.60;99.90
20319;DHT22;10317;47.254;11.314;2023-09-19T05:12:36;15.60;99.90
20319;DHT22;10317;47.254;11.314;2023-09-19T05:15:07;15.60;99.90
20319;DHT22;10317;47.254;11.314;2023-09-19T05:17:34;15.50;99.90
20319;DHT22;10317;47.254;11.314;2023-09-19T05:20:00;15.50;99.90
20319;DHT22;10317;47.254;11.314;2023-09-19T05:22:37;15.50;99.90
20319;DHT22;10317;47.254;11.314;2023-09-19T05:25:05;15.50;99.90
20319;DHT22;10317;47.254;11.314;2023-09-19T05:27:31;15.50;99.90
20319;DHT22;10317;47.254;11.314;2023-09-19T05:29:57;15.50;99.90
20319;DHT22;10317;47.254;11.314;2023-09-19T05:32:22;15.50;99.90
20319;DHT22;10317;47.254;11.314;2023-09-19T05:34:49;15.60;99.90
20319;DHT22;10317;47.254;11.314;2023-09-19T05:37:18;15.50;99.90
20319;DHT22;10317;47.254;11.314;2023-09-19T05:39:44;15.60;99.90
20319;DHT22;10317;47.254;11.314;2023-09-19T05:42:09;15.50;99.90
20319;DHT22;10317;47.254;11.314;2023-09-19T05:44:35;15.60;99.90
20319;DHT22;10317;47.254;11.314;2023-09-19T05:47:02;15.50;99.90
20319;DHT22;10317;47.254;11.314;2023-09-19T05:49:28;15.50;99.90
20319;DHT22;10317;47.254;11.314;2023-09-19T05:51:54;15.50;99.90
20319;DHT22;10317;47.254;11.314;2023-09-19T05:54:21;15.60;99.90
20319;DHT22;10317;47.254;11.314;2023-09-19T05:56:47;15.60;99.90
20319;DHT22;10317;47.254;11.314;2023-09-19T05:59:14;15.60;99.90
20319;DHT22;10317;47.254;11.314;2023-09-19T06:01:42;15.60;99.90
20319;DHT22;10317;47.254;11.314;2023-09-19T06:04:08;15.70;99.90
20319;DHT22;10317;47.254;11.314;2023-09-19T06:06:33;15.70;99.90
20319;DHT22;10317;47.254;11.314;2023-09-19T06:09:02;15.70;99.90
20319;DHT22;10317;47.254;11.314;2023-09-19T06:11:30;15.70;99.90
20319;DHT22;10317;47.254;11.314;2023-09-19T06:13:58;15.80;99.90
20319;DHT22;10317;47.254;11.314;2023-09-19T06:16:26;15.80;99.90
20319;DHT22;10317;47.254;11.314;2023-09-19T06:18:51;15.80;99.90
20319;DHT22;10317;47.254;11.314;2023-09-19T06:21:18;15.80;99.90
20319;DHT22;10317;47.254;11.314;2023-09-19T06:23:44;15.80;99.90
20319;DHT22;10317;47.254;11.314;2023-09-19T06:26:09;15.80;99.90
20319;DHT22;10317;47.254;11.314;2023-09-19T06:28:35;15.90;99.90
20319;DHT22;10317;47.254;11.314;2023-09-19T06:31:02;15.90;99.90
20319;DHT22;10317;47.254;11.314;2023-09-19T06:33:28;15.90;99.90
20319;DHT22;10317;47.254;11.314;2023-09-19T06:35:56;16.00;99.90
20319;DHT22;10317;47.254;11.314;2023-09-19T06:38:25;16.00;99.90
20319;DHT22;10317;47.254;11.314;2023-09-19T06:40:51;16.10;99.90
20319;DHT22;10317;47.254;11.314;2023-09-19T06:43:16;16.30;99.90
20319;DHT22;10317;47.254;11.314;2023-09-19T06:45:42;16.40;99.90
20319;DHT22;10317;47.254;11.314;2023-09-19T06:48:08;16.60;99.90
20319;DHT22;10317;47.254;11.314;2023-09-19T06:50:35;16.70;99.90
20319;DHT22;10317;47.254;11.314;2023-09-19T06:53:01;16.90;99.90
20319;DHT22;10317;47.254;11.314;2023-09-19T06:55:27;16.90;99.90
20319;DHT22;10317;47.254;11.314;2023-09-19T06:57:56;16.90;99.90
20319;DHT22;10317;47.254;11.314;2023-09-19T07:00:22;16.90;99.90
20319;DHT22;10317;47.254;11.314;2023-09-19T07:03:02;16.90;99.90
20319;DHT22;10317;47.254;11.314;2023-09-19T07:05:30;16.80;99.90
20319;DHT22;10317;47.254;11.314;2023-09-19T07:08:00;16.80;99.90
20319;DHT22;10317;47.254;11.314;2023-09-19T07:10:26;16.80;99.90
20319;DHT22;10317;47.254;11.314;2023-09-19T07:13:04;16.80;99.90
20319;DHT22;10317;47.254;11.314;2023-09-19T07:15:32;16.80;99.90
20319;DHT22;10317;47.254;11.314;2023-09-19T07:18:02;16.80;99.90
20319;DHT22;10317;47.254;11.314;2023-09-19T07:20:28;16.80;99.90
20319;DHT22;10317;47.254;11.314;2023-09-19T07:22:57;16.80;99.90
20319;DHT22;10317;47.254;11.314;2023-09-19T07:25:25;16.80;99.90
20319;DHT22;10317;47.254;11.314;2023-09-19T07:27:51;16.80;99.90
20319;DHT22;10317;47.254;11.314;2023-09-19T07:30:17;16.90;99.90
20319;DHT22;10317;47.254;11.314;2023-09-19T07:32:43;16.90;99.90
20319;DHT22;10317;47.254;11.314;2023-09-19T07:35:08;16.90;99.90
20319;DHT22;10317;47.254;11.314;2023-09-19T07:37:35;17.00;99.90
20319;DHT22;10317;47.254;11.314;2023-09-19T07:40:05;17.00;99.90
20319;DHT22;10317;47.254;11.314;2023-09-19T07:42:35;17.10;99.90
20319;DHT22;10317;47.254;11.314;2023-09-19T07:45:05;17.10;99.90
20319;DHT22;10317;47.254;11.314;2023-09-19T07:47:31;17.20;99.90
20319;DHT22;10317;47.254;11.314;2023-09-19T07:49:58;17.40;99.90
20319;DHT22;10317;47.254;11.314;2023-09-19T07:52:25;17.50;99.90
20319;DHT22;10317;47.254;11.314;2023-09-19T07:54:50;17.60;99.90
20319;DHT22;10317;47.254;11.314;2023-09-19T07:57:16;17.80;99.90
20319;DHT22;10317;47.254;11.314;2023-09-19T07:59:42;18.10;99.90
20319;DHT22;10317;47.254;11.314;2023-09-19T08:02:08;18.50;99.90
20319;DHT22;10317;47.254;11.314;2023-09-19T08:04:44;18.70;99.90
20319;DHT22;10317;47.254;11.314;2023-09-19T08:07:14;18.80;99.90
20319;DHT22;10317;47.254;11.314;2023-09-19T08:09:40;18.70;99.90
20319;DHT22;10317;47.254;11.314;2023-09-19T08:12:07;18.80;99.90
20319;DHT22;10317;47.254;11.314;2023-09-19T08:14:36;18.70;99.90
20319;DHT22;10317;47.254;11.314;2023-09-19T08:17:02;18.60;99.90
20319;DHT22;10317;47.254;11.314;2023-09-19T08:19:27;18.60;99.90
20319;DHT22;10317;47.254;11.314;2023-09-19T08:22:00;18.60;99.90
20319;DHT22;10317;47.254;11.314;2023-09-19T08:24:29;18.50;99.90
20319;DHT22;10317;47.254;11.314;2023-09-19T08:26:56;18.50;99.90
20319;DHT22;10317;47.254;11.314;2023-09-19T08:29:23;18.50;99.90
20319;DHT22;10317;47.254;11.314;2023-09-19T08:31:56;18.40;99.90
20319;DHT22;10317;47.254;11.314;2023-09-19T08:34:23;18.40;99.90
20319;DHT22;10317;47.254;11.314;2023-09-19T08:36:53;18.40;99.90
20319;DHT22;10317;47.254;11.314;2023-09-19T08:39:23;18.40;99.90
20319;DHT22;10317;47.254;11.314;2023-09-19T08:41:48;18.40;99.90
20319;DHT22;10317;47.254;11.314;2023-09-19T08:44:15;18.30;99.90
20319;DHT22;10317;47.254;11.314;2023-09-19T08:46:42;18.30;99.90
20319;DHT22;10317;47.254;11.314;2023-09-19T08:49:21;18.30;99.90
20319;DHT22;10317;47.254;11.314;2023-09-19T08:51:58;18.30;99.90
20319;DHT22;10317;47.254;11.314;2023-09-19T08:54:29;18.70;99.90
20319;DHT22;10317;47.254;11.314;2023-09-19T08:57:00;19.10;99.90
20319;DHT22;10317;47.254;11.314;2023-09-19T08:59:32;19.60;99.90
20319;DHT22;10317;47.254;11.314;2023-09-19T09:02:00;20.00;99.90
20319;DHT22;10317;47.254;11.314;2023-09-19T09:04:26;20.20;99.90
20319;DHT22;10317;47.254;11.314;2023-09-19T09:06:53;20.40;99.90
20319;DHT22;10317;47.254;11.314;2023-09-19T09:09:20;20.60;99.90
20319;DHT22;10317;47.254;11.314;2023-09-19T09:11:48;20.80;99.90
20319;DHT22;10317;47.254;11.314;2023-09-19T09:14:16;20.90;99.90
20319;DHT22;10317;47.254;11.314;2023-09-19T09:16:42;20.80;99.90
20319;DHT22;10317;47.254;11.314;2023-09-19T09:19:08;20.90;99.90
20319;DHT22;10317;47.254;11.314;2023-09-19T09:21:33;21.00;99.90
20319;DHT22;10317;47.254;11.314;2023-09-19T09:24:26;21.20;99.90
20319;DHT22;10317;47.254;11.314;2023-09-19T09:26:54;21.40;99.90
20319;DHT22;10317;47.254;11.314;2023-09-19T09:29:44;21.60;99.90
20319;DHT22;10317;47.254;11.314;2023-09-19T09:32:27;21.80;99.90
20319;DHT22;10317;47.254;11.314;2023-09-19T09:34:58;22.10;99.90
20319;DHT22;10317;47.254;11.314;2023-09-19T09:37:24;22.40;99.90
20319;DHT22;10317;47.254;11.314;2023-09-19T09:39:56;22.60;99.90
20319;DHT22;10317;47.254;11.314;2023-09-19T09:42:34;22.50;99.90
20319;DHT22;10317;47.254;11.314;2023-09-19T09:45:19;22.20;99.90
20319;DHT22;10317;47.254;11.314;2023-09-19T09:47:51;22.00;99.90
20319;DHT22;10317;47.254;11.314;2023-09-19T09:50:36;21.90;99.90
20319;DHT22;10317;47.254;11.314;2023-09-19T09:53:24;21.90;99.90
20319;DHT22;10317;47.254;11.314;2023-09-19T09:56:06;21.80;99.90
20319;DHT22;10317;47.254;11.314;2023-09-19T09:58:49;21.90;99.90
20319;DHT22;10317;47.254;11.314;2023-09-19T10:01:15;22.20;99.90
20319;DHT22;10317;47.254;11.314;2023-09-19T10:03:42;22.40;99.90
20319;DHT22;10317;47.254;11.314;2023-09-19T10:06:16;22.50;99.90
20319;DHT22;10317;47.254;11.314;2023-09-19T10:09:06;22.50;99.90
20319;DHT22;10317;47.254;11.314;2023-09-19T10:12:05;22.60;99.90
20319;DHT22;10317;47.254;11.314;2023-09-19T10:14:37;22.90;99.90
20319;DHT22;10317;47.254;11.314;2023-09-19T10:17:05;23.20;99.90
20319;DHT22;10317;47.254;11.314;2023-09-19T10:22:05;24.00;98.30
20319;DHT22;10317;47.254;11.314;2023-09-19T10:24:35;24.40;98.80
20319;DHT22;10317;47.254;11.314;2023-09-19T10:27:04;24.50;97.90
20319;DHT22;10317;47.254;11.314;2023-09-19T10:29:35;25.00;96.30
20319;DHT22;10317;47.254;11.314;2023-09-19T10:32:06;25.90;95.10
20319;DHT22;10317;47.254;11.314;2023-09-19T10:34:35;26.70;94.80
20319;DHT22;10317;47.254;11.314;2023-09-19T10:37:02;27.60;91.00
20319;DHT22;10317;47.254;11.314;2023-09-19T10:39:32;28.30;84.10
20319;DHT22;10317;47.254;11.314;2023-09-19T10:42:02;28.70;83.80
20319;DHT22;10317;47.254;11.314;2023-09-19T10:44:32;29.40;84.70
20319;DHT22;10317;47.254;11.314;2023-09-19T10:46:58;29.80;83.10
20319;DHT22;10317;47.254;11.314;2023-09-19T10:49:25;30.20;78.80
20319;DHT22;10317;47.254;11.314;2023-09-19T10:51:57;30.80;78.00
20319;DHT22;10317;47.254;11.314;2023-09-19T10:54:29;31.20;75.10
20319;DHT22;10317;47.254;11.314;2023-09-19T10:56:58;30.10;73.20
20319;DHT22;10317;47.254;11.314;2023-09-19T10:59:25;28.90;74.80
20319;DHT22;10317;47.254;11.314;2023-09-19T11:01:53;27.70;73.20
20319;DHT22;10317;47.254;11.314;2023-09-19T11:04:32;26.60;77.70
20319;DHT22;10317;47.254;11.314;2023-09-19T11:07:03;25.90;80.60
20319;DHT22;10317;47.254;11.314;2023-09-19T11:09:49;25.40;82.10
20319;DHT22;10317;47.254;11.314;2023-09-19T11:14:58;25.20;88.90
20319;DHT22;10317;47.254;11.314;2023-09-19T11:30:38;28.40;78.30
20319;DHT22;10317;47.254;11.314;2023-09-19T11:36:05;29.10;79.10
20319;DHT22;10317;47.254;11.314;2023-09-19T11:39:01;29.30;77.50
20319;DHT22;10317;47.254;11.314;2023-09-19T11:41:37;29.20;74.20
20319;DHT22;10317;47.254;11.314;2023-09-19T11:46:52;27.30;76.90
20319;DHT22;10317;47.254;11.314;2023-09-19T11:49:19;26.90;82.20
20319;DHT22;10317;47.254;11.314;2023-09-19T11:51:52;27.20;80.10
20319;DHT22;10317;47.254;11.314;2023-09-19T11:54:18;27.60;80.50
20319;DHT22;10317;47.254;11.314;2023-09-19T11:56:49;27.80;83.10
20319;DHT22;10317;47.254;11.314;2023-09-19T11:59:29;28.20;76.10
20319;DHT22;10317;47.254;11.314;2023-09-19T12:02:06;28.20;74.30
20319;DHT22;10317;47.254;11.314;2023-09-19T12:04:37;28.30;74.40
20319;DHT22;10317;47.254;11.314;2023-09-19T12:07:10;28.50;75.30
20319;DHT22;10317;47.254;11.314;2023-09-19T12:09:47;28.80;73.00
20319;DHT22;10317;47.254;11.314;2023-09-19T12:12:26;28.90;72.20
20319;DHT22;10317;47.254;11.314;2023-09-19T12:15:10;29.10;74.80
20319;DHT22;10317;47.254;11.314;2023-09-19T12:17:38;29.20;77.30
20319;DHT22;10317;47.254;11.314;2023-09-19T12:20:13;29.20;76.10
20319;DHT22;10317;47.254;11.314;2023-09-19T12:22:43;29.00;71.10
20319;DHT22;10317;47.254;11.314;2023-09-19T12:25:09;28.90;72.00
20319;DHT22;10317;47.254;11.314;2023-09-19T12:27:47;29.00;73.90
20319;DHT22;10317;47.254;11.314;2023-09-19T12:30:14;29.10;71.90
20319;DHT22;10317;47.254;11.314;2023-09-19T12:32:43;29.00;72.70
20319;DHT22;10317;47.254;11.314;2023-09-19T12:35:10;29.20;74.40
20319;DHT22;10317;47.254;11.314;2023-09-19T12:37:44;29.30;74.60
20319;DHT22;10317;47.254;11.314;2023-09-19T12:40:21;29.40;73.50
20319;DHT22;10317;47.254;11.314;2023-09-19T12:42:56;29.40;72.00
20319;DHT22;10317;47.254;11.314;2023-09-19T12:45:24;29.30;74.00
20319;DHT22;10317;47.254;11.314;2023-09-19T12:53:28;29.20;76.00
20319;DHT22;10317;47.254;11.314;2023-09-19T12:56:00;29.30;76.40
20319;DHT22;10317;47.254;11.314;2023-09-19T12:58:26;29.30;75.80
20319;DHT22;10317;47.254;11.314;2023-09-19T13:00:52;29.20;77.00
20319;DHT22;10317;47.254;11.314;2023-09-19T13:03:26;29.10;75.40
20319;DHT22;10317;47.254;11.314;2023-09-19T13:06:00;28.90;74.70
20319;DHT22;10317;47.254;11.314;2023-09-19T13:08:31;28.80;71.70
20319;DHT22;10317;47.254;11.314;2023-09-19T13:11:13;28.80;69.80
20319;DHT22;10317;47.254;11.314;2023-09-19T13:13:47;28.80;71.70
20319;DHT22;10317;47.254;11.314;2023-09-19T13:16:21;28.60;72.90
20319;DHT22;10317;47.254;11.314;2023-09-19T13:18:55;28.50;73.70
20319;DHT22;10317;47.254;11.314;2023-09-19T13:21:34;28.50;70.90
20319;DHT22;10317;47.254;11.314;2023-09-19T13:24:24;28.50;70.00
20319;DHT22;10317;47.254;11.314;2023-09-19T13:26:56;28.60;70.20
20319;DHT22;10317;47.254;11.314;2023-09-19T13:29:22;28.60;70.10
20319;DHT22;10317;47.254;11.314;2023-09-19T13:31:52;28.50;73.50
20319;DHT22;10317;47.254;11.314;2023-09-19T13:34:19;28.50;74.60
20319;DHT22;10317;47.254;11.314;2023-09-19T13:36:45;28.50;74.10
20319;DHT22;10317;47.254;11.314;2023-09-19T13:39:14;28.40;73.50
20319;DHT22;10317;47.254;11.314;2023-09-19T13:41:41;28.40;73.80
20319;DHT22;10317;47.254;11.314;2023-09-19T13:44:08;28.40;72.80
20319;DHT22;10317;47.254;11.314;2023-09-19T13:46:36;28.20;70.10
20319;DHT22;10317;47.254;11.314;2023-09-19T13:49:02;28.10;71.10
20319;DHT22;10317;47.254;11.314;2023-09-19T13:51:31;27.90;72.20
20319;DHT22;10317;47.254;11.314;2023-09-19T13:53:57;28.00;74.90
20319;DHT22;10317;47.254;11.314;2023-09-19T13:56:23;28.10;73.40
20319;DHT22;10317;47.254;11.314;2023-09-19T13:58:50;28.20;73.00
20319;DHT22;10317;47.254;11.314;2023-09-19T14:01:15;28.30;70.80
20319;DHT22;10317;47.254;11.314;2023-09-19T14:03:41;28.30;69.50
20319;DHT22;10317;47.254;11.314;2023-09-19T14:06:15;28.30;72.70
20319;DHT22;10317;47.254;11.314;2023-09-19T14:08:41;28.30;72.50
20319;DHT22;10317;47.254;11.314;2023-09-19T14:11:08;28.20;69.60
20319;DHT22;10317;47.254;11.314;2023-09-19T14:13:33;28.10;70.90
20319;DHT22;10317;47.254;11.314;2023-09-19T14:16:06;28.00;74.50
20319;DHT22;10317;47.254;11.314;2023-09-19T14:18:32;28.00;74.80
20319;DHT22;10317;47.254;11.314;2023-09-19T14:20:58;27.90;75.10
20319;DHT22;10317;47.254;11.314;2023-09-19T14:23:23;27.90;74.80
20319;DHT22;10317;47.254;11.314;2023-09-19T14:25:50;27.70;75.90
20319;DHT22;10317;47.254;11.314;2023-09-19T14:28:17;27.50;77.10
20319;DHT22;10317;47.254;11.314;2023-09-19T14:30:43;27.40;77.80
20319;DHT22;10317;47.254;11.314;2023-09-19T14:33:09;27.30;78.10
20319;DHT22;10317;47.254;11.314;2023-09-19T14:35:37;27.10;77.60
20319;DHT22;10317;47.254;11.314;2023-09-19T14:38:03;26.90;78.50
20319;DHT22;10317;47.254;11.314;2023-09-19T14:40:29;26.70;79.30
20319;DHT22;10317;47.254;11.314;2023-09-19T14:42:56;26.70;80.70
20319;DHT22;10317;47.254;11.314;2023-09-19T14:45:22;26.50;80.80
20319;DHT22;10317;47.254;11.314;2023-09-19T14:47:48;26.30;81.50
20319;DHT22;10317;47.254;11.314;2023-09-19T14:50:14;26.10;81.20
20319;DHT22;10317;47.254;11.314;2023-09-19T14:52:41;25.90;81.30
20319;DHT22;10317;47.254;11.314;2023-09-19T14:55:07;25.70;80.90
20319;DHT22;10317;47.254;11.314;2023-09-19T14:57:39;25.70;81.80
20319;DHT22;10317;47.254;11.314;2023-09-19T15:00:06;25.50;82.80
20319;DHT22;10317;47.254;11.314;2023-09-19T15:02:38;25.30;83.30
20319;DHT22;10317;47.254;11.314;2023-09-19T15:05:06;25.20;83.50
20319;DHT22;10317;47.254;11.314;2023-09-19T15:07:36;25.10;83.10
20319;DHT22;10317;47.254;11.314;2023-09-19T15:10:04;24.90;83.50
20319;DHT22;10317;47.254;11.314;2023-09-19T15:12:32;24.80;84.10
20319;DHT22;10317;47.254;11.314;2023-09-19T15:14:58;24.60;84.60
20319;DHT22;10317;47.254;11.314;2023-09-19T15:17:24;24.40;84.40
20319;DHT22;10317;47.254;11.314;2023-09-19T15:19:50;24.30;86.10
20319;DHT22;10317;47.254;11.314;2023-09-19T15:22:16;24.20;84.70
20319;DHT22;10317;47.254;11.314;2023-09-19T15:24:42;24.00;85.80
20319;DHT22;10317;47.254;11.314;2023-09-19T15:27:08;24.00;86.20
20319;DHT22;10317;47.254;11.314;2023-09-19T15:29:34;23.90;86.50
20319;DHT22;10317;47.254;11.314;2023-09-19T15:31:59;23.70;85.50
20319;DHT22;10317;47.254;11.314;2023-09-19T15:34:28;23.70;85.50
20319;DHT22;10317;47.254;11.314;2023-09-19T15:36:54;23.60;86.50
20319;DHT22;10317;47.254;11.314;2023-09-19T15:39:20;23.50;87.80
20319;DHT22;10317;47.254;11.314;2023-09-19T15:41:48;23.40;88.90
20319;DHT22;10317;47.254;11.314;2023-09-19T15:44:18;23.30;89.50
20319;DHT22;10317;47.254;11.314;2023-09-19T15:46:45;23.20;90.10
20319;DHT22;10317;47.254;11.314;2023-09-19T15:49:11;23.10;90.40
20319;DHT22;10317;47.254;11.314;2023-09-19T15:51:37;23.00;90.80
20319;DHT22;10317;47.254;11.314;2023-09-19T15:54:29;22.90;90.90
20319;DHT22;10317;47.254;11.314;2023-09-19T15:56:55;22.70;91.50
20319;DHT22;10317;47.254;11.314;2023-09-19T15:59:20;22.60;91.40
20319;DHT22;10317;47.254;11.314;2023-09-19T16:01:46;22.40;91.80
20319;DHT22;10317;47.254;11.314;2023-09-19T16:04:12;22.30;92.20
20319;DHT22;10317;47.254;11.314;2023-09-19T16:06:38;22.20;91.90
20319;DHT22;10317;47.254;11.314;2023-09-19T16:09:04;22.00;92.30
20319;DHT22;10317;47.254;11.314;2023-09-19T16:11:35;21.90;92.60
20319;DHT22;10317;47.254;11.314;2023-09-19T16:14:01;21.80;93.20
20319;DHT22;10317;47.254;11.314;2023-09-19T16:16:27;21.80;93.40
20319;DHT22;10317;47.254;11.314;2023-09-19T16:18:57;21.70;94.00